Time;durP1;ratioP1;P1;durP2;ratioP2;P2;SDS_P1;SDS_P2;PMS_P1;PMS_P2;Temp;Humidity;BMP_temperature;BMP_pressure;BME280_temperature;BME280_humidity;BME280_pressure;Samples;Min_cycle;Max_cycle;Signal;HPM_P1;HPM_P2
2022/11/15 00:01:17;;;;;;;185.90;54.60;;;10.50;99.90;;;;;;5067559;28;20665;-52
2022/11/15 00:03:46;;;;;;;65.67;43.50;;;10.50;99.90;;;;;;5087998;28;20645;-51
2022/11/15 00:06:14;;;;;;;526.07;155.47;;;10.50;99.90;;;;;;5088955;28;20261;-52
2022/11/15 00:08:42;;;;;;;737.67;193.57;;;10.50;99.90;;;;;;5088870;28;20287;-50
2022/11/15 00:11:12;;;;;;;392.67;132.03;;;10.60;99.90;;;;;;5086024;28;20665;-52
2022/11/15 00:13:42;;;;;;;1300.60;400.77;;;10.60;99.90;;;;;;5081690;28;20319;-51
2022/11/15 00:16:11;;;;;;;1102.77;380.70;;;10.60;99.90;;;;;;5081351;28;20375;-52
2022/11/15 00:18:39;;;;;;;903.67;296.10;;;10.60;99.90;;;;;;5088715;28;20650;-51
2022/11/15 00:21:08;;;;;;;410.97;108.03;;;10.60;99.90;;;;;;5086465;28;20477;-51
2022/11/15 00:23:37;;;;;;;730.07;262.37;;;10.60;99.90;;;;;;5078684;28;20334;-52
2022/11/15 00:26:05;;;;;;;1174.63;329.50;;;10.60;99.90;;;;;;5086728;28;20228;-51
2022/11/15 00:28:33;;;;;;;784.20;243.07;;;10.50;99.90;;;;;;5077444;28;20292;-51
2022/11/15 00:31:03;;;;;;;1020.10;253.30;;;10.50;99.90;;;;;;5085237;28;20788;-52
2022/11/15 00:33:31;;;;;;;156.33;54.83;;;10.50;99.90;;;;;;5082542;28;20935;-51
2022/11/15 00:36:02;;;;;;;393.80;84.30;;;10.50;99.90;;;;;;5087238;28;20904;-52
2022/11/15 00:38:32;;;;;;;1054.73;241.70;;;10.50;99.90;;;;;;5073500;28;20243;-52
2022/11/15 00:41:01;;;;;;;792.73;178.50;;;10.50;99.90;;;;;;5083319;28;20985;-52
2022/11/15 00:43:36;;;;;;;1490.90;261.40;;;10.50;99.90;;;;;;5072747;28;20224;-52
2022/11/15 00:46:07;;;;;;;757.87;158.70;;;10.50;99.90;;;;;;5079835;28;20227;-52
2022/11/15 00:48:36;;;;;;;1303.97;220.77;;;10.50;99.90;;;;;;5071721;28;20583;-52
2022/11/15 00:51:04;;;;;;;1204.73;275.47;;;10.50;99.90;;;;;;5078638;28;20299;-52
2022/11/15 00:53:32;;;;;;;1999.90;468.50;;;10.50;99.90;;;;;;5081496;28;20317;-52
2022/11/15 00:56:00;;;;;;;834.67;154.93;;;10.50;99.90;;;;;;5092283;28;20232;-52
2022/11/15 00:58:28;;;;;;;1044.63;169.10;;;10.50;99.90;;;;;;5066814;28;20213;-52
2022/11/15 01:00:56;;;;;;;1427.60;266.90;;;10.60;99.90;;;;;;5091494;28;20257;-52
2022/11/15 01:03:26;;;;;;;1473.40;259.50;;;10.50;99.90;;;;;;5090993;28;20232;-52
2022/11/15 01:05:54;;;;;;;727.57;192.70;;;10.50;99.90;;;;;;5065624;28;20222;-52
2022/11/15 01:08:22;;;;;;;1618.30;351.80;;;10.60;99.90;;;;;;5077398;28;20204;-52
2022/11/15 01:10:50;;;;;;;1283.83;245.67;;;10.60;99.90;;;;;;5091690;28;20232;-52
2022/11/15 01:13:18;;;;;;;1309.97;207.90;;;10.50;99.90;;;;;;5090476;28;20307;-52
2022/11/15 01:15:46;;;;;;;1817.60;331.97;;;10.50;99.90;;;;;;5085378;28;20200;-52
2022/11/15 01:18:14;;;;;;;1572.97;261.83;;;10.50;99.90;;;;;;5091367;28;20316;-52
2022/11/15 01:20:44;;;;;;;1138.13;205.57;;;10.50;99.90;;;;;;5091885;28;20299;-52
2022/11/15 01:23:12;;;;;;;1010.53;210.13;;;10.50;99.90;;;;;;5079878;28;20232;-52
2022/11/15 01:25:40;;;;;;;987.63;268.37;;;10.50;99.90;;;;;;5091656;28;20234;-52
2022/11/15 01:28:08;;;;;;;900.87;183.20;;;10.40;99.90;;;;;;5084241;28;20247;-51
2022/11/15 01:30:37;;;;;;;295.37;111.07;;;10.40;99.90;;;;;;5085199;28;20291;-52
2022/11/15 01:33:05;;;;;;;210.67;75.37;;;10.40;99.90;;;;;;5075953;28;20216;-52
2022/11/15 01:35:33;;;;;;;878.23;220.20;;;10.40;99.90;;;;;;5090771;28;20200;-51
2022/11/15 01:38:02;;;;;;;149.20;48.67;;;10.40;99.90;;;;;;5091359;28;20291;-52
2022/11/15 01:40:30;;;;;;;927.43;255.50;;;10.40;99.90;;;;;;5086124;28;20251;-52
2022/11/15 01:42:58;;;;;;;446.13;162.43;;;10.40;99.90;;;;;;5076418;28;20264;-52
2022/11/15 01:45:27;;;;;;;238.53;89.97;;;10.30;99.90;;;;;;5080248;28;20651;-52
2022/11/15 01:47:56;;;;;;;507.83;135.13;;;10.30;99.90;;;;;;5091584;28;20582;-52
2022/11/15 01:50:27;;;;;;;291.97;80.47;;;10.30;99.90;;;;;;5090544;28;20286;-52
2022/11/15 01:52:56;;;;;;;292.73;95.30;;;10.30;99.90;;;;;;5090842;28;20266;-51
2022/11/15 01:55:28;;;;;;;282.50;82.63;;;10.30;99.90;;;;;;5089200;28;20295;-50
2022/11/15 01:58:00;;;;;;;209.43;76.97;;;10.30;99.90;;;;;;5071732;28;20282;-53
2022/11/15 02:00:29;;;;;;;67.90;28.43;;;10.20;99.90;;;;;;5090973;28;20291;-52
2022/11/15 02:02:58;;;;;;;48.47;24.47;;;10.20;99.90;;;;;;5089591;28;20232;-52
2022/11/15 02:05:27;;;;;;;186.20;87.97;;;10.20;99.90;;;;;;5081673;28;20243;-54
2022/11/15 02:07:55;;;;;;;198.83;88.73;;;10.30;99.90;;;;;;5070127;28;20307;-52
2022/11/15 02:10:26;;;;;;;915.13;293.67;;;10.30;99.90;;;;;;5073844;28;20761;-51
2022/11/15 02:12:55;;;;;;;66.93;36.33;;;10.30;99.90;;;;;;5067637;28;20340;-52
2022/11/15 02:15:28;;;;;;;946.90;309.40;;;10.40;99.90;;;;;;5063484;28;20292;-52
2022/11/15 02:18:11;;;;;;;598.50;144.70;;;10.40;99.90;;;;;;5076399;28;20292;-52
2022/11/15 02:20:56;;;;;;;205.73;54.97;;;10.40;99.90;;;;;;5074162;28;20340;-52
2022/11/15 02:23:57;;;;;;;292.47;90.07;;;10.40;99.90;;;;;;5058423;28;20312;-52
2022/11/15 02:26:56;;;;;;;39.93;23.37;;;10.40;99.90;;;;;;5072789;28;20296;-51
2022/11/15 02:29:37;;;;;;;761.67;261.10;;;10.40;99.90;;;;;;5069006;28;20247;-52
2022/11/15 02:32:14;;;;;;;468.77;199.10;;;10.40;99.90;;;;;;5089744;28;20318;-51
2022/11/15 02:34:55;;;;;;;482.73;152.30;;;10.50;99.90;;;;;;5088917;28;20636;-51
2022/11/15 02:37:31;;;;;;;664.10;236.80;;;10.50;99.90;;;;;;5087848;28;20324;-51
2022/11/15 02:40:08;;;;;;;791.67;283.33;;;10.40;99.90;;;;;;5089868;28;20312;-51
2022/11/15 02:45:32;;;;;;;947.10;317.07;;;10.40;99.90;;;;;;5060007;28;20246;-52
2022/11/15 02:48:03;;;;;;;207.23;58.63;;;10.40;99.90;;;;;;5089171;28;20673;-51
2022/11/15 02:50:33;;;;;;;912.80;245.17;;;10.40;99.90;;;;;;5089793;28;20271;-52
2022/11/15 02:53:01;;;;;;;600.13;160.80;;;10.40;99.90;;;;;;5089020;28;20235;-52
2022/11/15 02:55:31;;;;;;;302.47;75.33;;;10.40;99.90;;;;;;5062644;28;20230;-51
2022/11/15 02:58:16;;;;;;;833.40;225.87;;;10.40;99.90;;;;;;5090427;28;20203;-51
2022/11/15 03:00:51;;;;;;;1052.00;254.20;;;10.40;99.90;;;;;;5090574;28;20295;-51
2022/11/15 03:03:42;;;;;;;684.67;169.87;;;10.40;99.90;;;;;;5088797;28;20224;-51
2022/11/15 03:06:21;;;;;;;269.63;76.57;;;10.40;99.90;;;;;;5089738;28;20312;-52
2022/11/15 03:08:56;;;;;;;624.00;158.43;;;10.40;99.90;;;;;;5085694;28;20245;-52
2022/11/15 03:11:25;;;;;;;1375.57;264.57;;;10.40;99.90;;;;;;5073734;28;20292;-52
2022/11/15 03:13:58;;;;;;;689.77;175.00;;;10.40;99.90;;;;;;5081256;28;20220;-52
2022/11/15 03:16:32;;;;;;;432.70;101.93;;;10.40;99.90;;;;;;5078626;28;20232;-52
2022/11/15 03:19:06;;;;;;;721.73;169.57;;;10.40;99.90;;;;;;5087181;28;20208;-52
2022/11/15 03:21:38;;;;;;;981.30;297.60;;;10.40;99.90;;;;;;5070426;28;20292;-51
2022/11/15 03:24:08;;;;;;;913.43;238.40;;;10.40;99.90;;;;;;5085715;28;20315;-52
2022/11/15 03:26:40;;;;;;;467.13;110.90;;;10.40;99.90;;;;;;5089823;28;20295;-51
2022/11/15 03:29:13;;;;;;;544.30;129.03;;;10.40;99.90;;;;;;5075424;28;20730;-52
2022/11/15 03:31:48;;;;;;;561.13;161.93;;;10.50;99.90;;;;;;5089656;28;20450;-52
2022/11/15 03:34:27;;;;;;;1326.47;344.13;;;10.50;99.90;;;;;;5085795;28;20227;-52
2022/11/15 03:36:55;;;;;;;657.73;162.70;;;10.50;99.90;;;;;;5078417;28;20208;-52
2022/11/15 03:39:25;;;;;;;752.87;229.63;;;10.50;99.90;;;;;;5088773;28;20240;-52
2022/11/15 03:42:02;;;;;;;588.77;173.33;;;10.50;99.90;;;;;;5088978;28;20251;-52
2022/11/15 03:44:39;;;;;;;624.83;155.07;;;10.50;99.90;;;;;;5089036;28;20256;-52
2022/11/15 03:47:12;;;;;;;262.87;80.93;;;10.50;99.90;;;;;;5088377;28;20314;-52
2022/11/15 03:49:45;;;;;;;559.87;178.37;;;10.50;99.90;;;;;;5073240;28;20303;-52
2022/11/15 03:52:13;;;;;;;643.53;166.47;;;10.50;99.90;;;;;;5078850;28;20231;-51
2022/11/15 03:54:50;;;;;;;494.60;145.13;;;10.50;99.90;;;;;;5088969;28;20236;-52
2022/11/15 03:57:18;;;;;;;760.20;179.40;;;10.50;99.90;;;;;;5080937;28;20295;-51
2022/11/15 03:59:46;;;;;;;460.23;119.17;;;10.50;99.90;;;;;;5077649;28;20209;-52
2022/11/15 04:02:15;;;;;;;527.27;114.17;;;10.50;99.90;;;;;;5088454;28;20319;-51
2022/11/15 04:04:44;;;;;;;168.50;53.43;;;10.50;99.90;;;;;;5088723;28;20269;-51
2022/11/15 04:07:12;;;;;;;938.97;235.50;;;10.60;99.90;;;;;;5088596;28;20310;-52
2022/11/15 04:12:30;;;;;;;1122.13;326.03;;;10.60;99.90;;;;;;5087498;28;20323;-51
2022/11/15 04:15:09;;;;;;;897.20;188.90;;;10.60;99.90;;;;;;5077325;28;20215;-52
2022/11/15 04:17:39;;;;;;;264.43;73.97;;;10.60;99.90;;;;;;5088356;28;20282;-52
2022/11/15 04:25:44;;;;;;;1193.83;313.47;;;10.70;99.90;;;;;;5088762;28;20216;-51
2022/11/15 04:28:12;;;;;;;269.23;81.63;;;10.70;99.90;;;;;;5083942;28;20244;-51
2022/11/15 04:30:41;;;;;;;824.27;254.87;;;10.70;99.90;;;;;;5080305;28;20296;-52
2022/11/15 04:33:09;;;;;;;1084.67;228.37;;;10.70;99.90;;;;;;5092221;28;20228;-52
2022/11/15 04:35:38;;;;;;;1376.23;320.80;;;10.80;99.90;;;;;;5092115;28;20231;-51
2022/11/15 04:38:08;;;;;;;705.90;160.50;;;10.80;99.90;;;;;;5077615;28;20242;-51
2022/11/15 04:40:36;;;;;;;387.47;95.93;;;10.80;99.90;;;;;;5075801;28;20236;-51
2022/11/15 04:43:05;;;;;;;732.80;176.53;;;10.90;99.90;;;;;;5087142;28;20842;-52
2022/11/15 04:45:33;;;;;;;967.70;241.80;;;10.90;99.90;;;;;;5090018;28;20295;-52
2022/11/15 04:48:01;;;;;;;1999.90;411.27;;;10.90;99.90;;;;;;5090937;28;20242;-52
2022/11/15 04:50:29;;;;;;;1994.23;387.60;;;10.80;99.90;;;;;;5092153;28;20287;-52
2022/11/15 04:52:59;;;;;;;1387.27;320.17;;;10.90;99.90;;;;;;5091443;28;20339;-52
2022/11/15 04:55:27;;;;;;;1378.07;235.83;;;10.90;99.90;;;;;;5092269;28;20840;-52
2022/11/15 04:58:02;;;;;;;877.17;181.37;;;10.90;99.90;;;;;;5082950;28;20316;-52
2022/11/15 05:00:30;;;;;;;1725.83;316.97;;;10.90;99.90;;;;;;5084852;28;20282;-52
2022/11/15 05:05:44;;;;;;;1167.13;321.37;;;10.80;99.90;;;;;;5071035;28;20258;-51
2022/11/15 05:08:13;;;;;;;1999.90;365.87;;;10.80;99.90;;;;;;5086000;28;20239;-52
2022/11/15 05:10:41;;;;;;;1999.90;498.60;;;10.80;99.90;;;;;;5091913;28;20943;-51
2022/11/15 05:13:09;;;;;;;929.73;212.60;;;10.80;99.90;;;;;;5090887;28;20236;-51
2022/11/15 05:15:37;;;;;;;1465.30;316.43;;;10.80;99.90;;;;;;5077923;28;20248;-52
2022/11/15 05:18:06;;;;;;;1021.70;199.13;;;10.80;99.90;;;;;;5091711;28;20212;-52
2022/11/15 05:20:34;;;;;;;1706.50;325.47;;;10.80;99.90;;;;;;5082257;28;20293;-52
2022/11/15 05:23:02;;;;;;;1228.53;284.27;;;10.80;99.90;;;;;;5080721;28;20618;-52
2022/11/15 05:25:31;;;;;;;996.73;229.83;;;10.80;99.90;;;;;;5091402;28;20723;-52
2022/11/15 05:27:59;;;;;;;1372.07;259.57;;;10.80;99.90;;;;;;5086177;28;20229;-52
2022/11/15 05:30:27;;;;;;;1338.83;305.07;;;10.80;99.90;;;;;;5082769;28;20303;-51
2022/11/15 05:32:55;;;;;;;1937.93;365.97;;;10.80;99.90;;;;;;5091203;28;20311;-52
2022/11/15 05:35:30;;;;;;;1774.63;448.03;;;10.70;99.90;;;;;;5087961;28;20280;-51
2022/11/15 05:37:58;;;;;;;1999.90;405.10;;;10.70;99.90;;;;;;5075458;28;20290;-52
2022/11/15 05:40:27;;;;;;;1099.33;230.60;;;10.70;99.90;;;;;;5090399;28;20246;-52
2022/11/15 05:42:57;;;;;;;1610.63;313.03;;;10.60;99.90;;;;;;5075693;28;20299;-52
2022/11/15 05:45:25;;;;;;;1276.53;315.10;;;10.60;99.90;;;;;;5091249;28;20311;-52
2022/11/15 05:47:56;;;;;;;993.23;270.67;;;10.50;99.90;;;;;;5079906;28;20213;-52
2022/11/15 05:50:24;;;;;;;1318.83;276.17;;;10.30;99.90;;;;;;5070514;28;20608;-52
2022/11/15 05:52:53;;;;;;;1272.23;252.43;;;10.30;99.90;;;;;;5069729;28;20674;-52
2022/11/15 05:55:21;;;;;;;1351.20;241.53;;;10.20;99.90;;;;;;5061345;28;20657;-52
2022/11/15 05:57:49;;;;;;;848.17;213.77;;;10.20;99.90;;;;;;5070332;28;20303;-51
2022/11/15 06:00:19;;;;;;;1321.00;240.87;;;10.10;99.90;;;;;;5070927;28;20215;-52
2022/11/15 06:02:47;;;;;;;914.73;166.10;;;10.10;99.90;;;;;;5069799;28;20256;-52
2022/11/15 06:05:15;;;;;;;674.63;171.97;;;10.00;99.90;;;;;;5069773;28;20701;-52
2022/11/15 06:07:44;;;;;;;363.93;83.50;;;10.00;99.90;;;;;;5070378;28;20299;-51
2022/11/15 06:10:12;;;;;;;217.17;52.40;;;10.00;99.90;;;;;;5070524;28;20208;-52
2022/11/15 06:12:40;;;;;;;531.13;186.30;;;10.00;99.90;;;;;;5070008;28;20233;-51
2022/11/15 06:15:09;;;;;;;212.73;58.83;;;10.00;99.90;;;;;;5069033;28;20730;-52
2022/11/15 06:17:39;;;;;;;549.00;122.77;;;10.00;99.90;;;;;;5076670;28;20239;-52
2022/11/15 06:20:07;;;;;;;561.00;140.87;;;9.90;99.90;;;;;;5089580;28;20334;-52
2022/11/15 06:22:35;;;;;;;806.10;205.53;;;9.80;99.90;;;;;;5080751;28;20278;-52
2022/11/15 06:25:04;;;;;;;542.17;103.17;;;9.80;99.90;;;;;;5090517;28;20314;-52
2022/11/15 06:27:32;;;;;;;83.07;38.20;;;9.70;99.90;;;;;;5073635;28;20227;-52
2022/11/15 06:30:01;;;;;;;255.20;63.37;;;9.60;99.90;;;;;;5079828;28;20295;-52
2022/11/15 06:32:30;;;;;;;453.70;142.67;;;9.60;99.90;;;;;;5089337;28;20263;-52
2022/11/15 06:34:59;;;;;;;325.00;83.53;;;9.60;99.90;;;;;;5088601;28;20201;-52
2022/11/15 06:37:27;;;;;;;103.77;39.03;;;9.60;99.90;;;;;;5083296;28;20298;-52
2022/11/15 06:39:55;;;;;;;332.83;88.37;;;9.60;99.90;;;;;;5090296;28;20239;-52
2022/11/15 06:42:23;;;;;;;133.07;53.17;;;9.60;99.90;;;;;;5089214;28;20319;-52
2022/11/15 06:44:51;;;;;;;520.93;146.23;;;9.50;99.90;;;;;;5082077;28;20768;-52
2022/11/15 06:47:19;;;;;;;373.23;99.83;;;9.50;99.90;;;;;;5089363;28;20204;-52
2022/11/15 06:49:47;;;;;;;87.60;44.17;;;9.50;99.90;;;;;;5089156;28;20240;-51
2022/11/15 06:52:18;;;;;;;571.60;179.73;;;9.50;99.90;;;;;;5089709;28;20270;-51
2022/11/15 06:54:46;;;;;;;39.43;29.50;;;9.50;99.90;;;;;;5089822;28;20288;-52
2022/11/15 06:57:14;;;;;;;270.60;113.93;;;9.50;99.90;;;;;;5085394;28;20734;-52
2022/11/15 06:59:42;;;;;;;341.90;135.03;;;9.40;99.90;;;;;;5085176;28;20208;-51
2022/11/15 07:02:14;;;;;;;37.63;27.57;;;9.40;99.90;;;;;;5089567;28;20208;-52
2022/11/15 07:04:42;;;;;;;223.70;84.50;;;9.40;99.90;;;;;;5089472;28;20321;-52
2022/11/15 07:07:10;;;;;;;26.63;21.60;;;9.40;99.90;;;;;;5089584;28;20307;-52
2022/11/15 07:09:40;;;;;;;152.33;60.60;;;9.40;99.90;;;;;;5079667;28;20202;-52
2022/11/15 07:12:08;;;;;;;278.70;82.17;;;9.50;99.90;;;;;;5057285;28;20232;-52
2022/11/15 07:14:36;;;;;;;235.17;74.27;;;9.50;99.90;;;;;;5069473;28;20299;-52
2022/11/15 07:17:05;;;;;;;416.30;111.67;;;9.60;99.90;;;;;;5084303;28;20247;-52
2022/11/15 07:19:33;;;;;;;17.27;13.97;;;9.60;99.90;;;;;;5089907;28;20255;-52
2022/11/15 07:22:01;;;;;;;634.90;155.50;;;9.70;99.90;;;;;;5079385;28;20331;-52
2022/11/15 07:24:29;;;;;;;130.90;37.20;;;9.80;99.90;;;;;;5089865;28;20294;-52
2022/11/15 07:26:59;;;;;;;263.13;99.10;;;9.80;99.90;;;;;;5085942;28;20700;-52
2022/11/15 07:29:27;;;;;;;933.07;265.13;;;9.90;99.90;;;;;;5069198;28;20197;-52
2022/11/15 07:31:56;;;;;;;29.57;17.83;;;10.00;99.90;;;;;;5068951;28;20291;-52
2022/11/15 07:34:24;;;;;;;104.40;41.43;;;10.00;99.90;;;;;;5059853;28;20762;-52
2022/11/15 07:36:52;;;;;;;914.50;263.40;;;10.10;99.90;;;;;;5066093;28;20240;-52
2022/11/15 07:39:20;;;;;;;57.30;38.33;;;10.20;99.90;;;;;;5067650;28;20197;-53
2022/11/15 07:41:49;;;;;;;482.00;147.67;;;10.30;99.90;;;;;;5060522;28;20232;-52
2022/11/15 07:44:18;;;;;;;238.00;71.07;;;10.30;99.90;;;;;;5068495;28;20232;-52
2022/11/15 07:46:46;;;;;;;258.67;90.43;;;10.30;99.90;;;;;;5061852;28;20308;-52
2022/11/15 07:49:14;;;;;;;1033.60;370.37;;;10.30;99.90;;;;;;5065526;28;20231;-51
2022/11/15 07:51:42;;;;;;;863.27;252.90;;;10.30;99.90;;;;;;5072805;28;20291;-52
2022/11/15 07:54:10;;;;;;;420.00;128.27;;;10.30;99.90;;;;;;5073251;28;20259;-51
2022/11/15 07:56:38;;;;;;;184.70;67.83;;;10.30;99.90;;;;;;5073008;28;20235;-52
2022/11/15 07:59:07;;;;;;;1056.33;286.93;;;10.30;99.90;;;;;;5057769;28;20233;-52
2022/11/15 08:01:36;;;;;;;884.70;254.40;;;10.40;99.90;;;;;;5068490;28;20205;-52
2022/11/15 08:04:04;;;;;;;638.00;219.90;;;10.40;99.90;;;;;;5071536;28;20224;-52
2022/11/15 08:06:32;;;;;;;406.50;122.03;;;10.50;99.90;;;;;;5072694;28;20311;-52
2022/11/15 08:09:00;;;;;;;191.10;68.07;;;10.60;99.90;;;;;;5071916;28;20239;-52
2022/11/15 08:11:29;;;;;;;591.73;142.00;;;10.60;99.90;;;;;;5072044;28;20231;-51
2022/11/15 08:13:57;;;;;;;802.50;262.60;;;10.70;99.90;;;;;;5071076;28;20307;-52
2022/11/15 08:16:25;;;;;;;891.63;265.77;;;10.70;99.90;;;;;;5072683;28;20247;-52
2022/11/15 08:18:54;;;;;;;1079.67;227.47;;;10.80;99.90;;;;;;5088078;28;20282;-52
2022/11/15 08:21:23;;;;;;;344.47;102.03;;;10.90;99.90;;;;;;5079235;28;20741;-51
2022/11/15 08:23:52;;;;;;;829.80;205.27;;;11.00;99.90;;;;;;5086085;28;20311;-52
2022/11/15 08:26:20;;;;;;;1329.40;369.47;;;11.10;99.90;;;;;;5093022;28;20302;-52
2022/11/15 08:28:48;;;;;;;216.43;59.30;;;11.20;99.90;;;;;;5075785;28;20288;-52
2022/11/15 08:31:18;;;;;;;1999.90;673.73;;;11.30;99.90;;;;;;5081634;28;20208;-52
2022/11/15 08:33:46;;;;;;;1277.00;329.87;;;11.30;99.90;;;;;;5071669;28;20327;-52
2022/11/15 08:36:17;;;;;;;1677.70;568.13;;;11.40;99.90;;;;;;5089706;28;20274;-52
2022/11/15 08:38:45;;;;;;;939.07;220.07;;;11.40;99.90;;;;;;5086523;28;20304;-53
2022/11/15 08:41:17;;;;;;;1504.03;370.47;;;11.40;99.90;;;;;;5080238;28;20232;-51
2022/11/15 08:43:45;;;;;;;826.27;180.07;;;11.40;99.90;;;;;;5092296;28;20309;-51
2022/11/15 08:46:14;;;;;;;728.10;234.33;;;11.40;99.90;;;;;;5067865;28;20307;-51
2022/11/15 08:48:42;;;;;;;1280.10;376.83;;;11.30;99.90;;;;;;5091721;28;20335;-52
2022/11/15 08:51:10;;;;;;;1378.83;291.00;;;11.30;99.90;;;;;;5090475;28;20299;-52
2022/11/15 08:53:40;;;;;;;1134.90;257.57;;;11.30;99.90;;;;;;5075433;28;20316;-52
2022/11/15 08:56:08;;;;;;;1198.63;295.73;;;11.40;99.90;;;;;;5080444;28;20283;-52
2022/11/15 08:58:37;;;;;;;1477.80;313.00;;;11.60;99.90;;;;;;5082403;28;20299;-51
2022/11/15 09:01:06;;;;;;;1207.80;289.40;;;11.80;99.90;;;;;;5092187;28;20299;-51
2022/11/15 09:03:34;;;;;;;746.47;228.83;;;11.90;99.90;;;;;;5089265;28;20696;-52
2022/11/15 09:06:02;;;;;;;1999.90;568.07;;;11.90;99.90;;;;;;5091985;28;20311;-52
2022/11/15 09:08:31;;;;;;;1859.73;457.37;;;11.90;99.90;;;;;;5092212;28;20204;-51
2022/11/15 09:11:19;;;;;;;1085.80;286.97;;;11.80;99.90;;;;;;5091988;28;20261;-52
2022/11/15 09:13:47;;;;;;;1859.10;383.43;;;11.90;99.90;;;;;;5088194;28;20259;-52
2022/11/15 09:16:16;;;;;;;1675.77;469.33;;;11.90;99.90;;;;;;5080085;28;20208;-52
2022/11/15 09:18:44;;;;;;;1735.13;492.37;;;12.00;99.90;;;;;;5091597;28;20300;-51
2022/11/15 09:21:12;;;;;;;733.13;195.33;;;12.10;99.90;;;;;;5088624;28;20696;-52
2022/11/15 09:23:40;;;;;;;1982.47;501.17;;;12.30;99.90;;;;;;5084413;28;20234;-52
2022/11/15 09:26:09;;;;;;;1269.00;326.10;;;12.30;99.90;;;;;;5091559;28;20308;-52
2022/11/15 09:28:41;;;;;;;1999.90;683.20;;;12.30;99.90;;;;;;5080027;28;20753;-52
2022/11/15 09:31:09;;;;;;;1999.90;532.63;;;12.40;99.90;;;;;;5087283;28;20269;-52
2022/11/15 09:33:38;;;;;;;1999.90;547.20;;;12.40;99.90;;;;;;5090282;28;20311;-52
2022/11/15 09:36:08;;;;;;;1968.93;521.43;;;12.50;99.90;;;;;;5091477;28;20584;-52
2022/11/15 09:38:36;;;;;;;1999.90;571.33;;;12.50;99.90;;;;;;5091306;28;20292;-52
2022/11/15 09:41:39;;;;;;;1805.20;423.07;;;12.40;99.90;;;;;;5086991;28;20299;-52
2022/11/15 09:44:28;;;;;;;1999.90;544.90;;;12.30;99.90;;;;;;5060433;28;20752;-52
2022/11/15 09:47:04;;;;;;;1825.50;409.47;;;12.30;99.90;;;;;;5068648;28;20227;-52
2022/11/15 09:49:32;;;;;;;1999.90;528.73;;;12.20;99.90;;;;;;5088758;28;20756;-52
2022/11/15 09:52:01;;;;;;;1999.90;555.63;;;12.20;99.90;;;;;;5091056;28;20327;-52
2022/11/15 09:54:31;;;;;;;1891.47;421.43;;;12.20;99.90;;;;;;5090873;28;20232;-51
2022/11/15 09:57:24;;;;;;;1962.57;451.77;;;12.20;99.90;;;;;;5085632;28;20193;-51
2022/11/15 10:00:00;;;;;;;1959.23;465.57;;;12.30;99.90;;;;;;5086969;28;20318;-51
2022/11/15 10:03:10;;;;;;;1886.40;345.07;;;12.40;99.90;;;;;;5090680;28;20238;-52
2022/11/15 10:05:41;;;;;;;1292.30;293.60;;;12.40;99.90;;;;;;5083270;28;20299;-52
2022/11/15 10:08:32;;;;;;;1006.37;230.47;;;12.50;99.90;;;;;;5089844;28;20307;-52
2022/11/15 10:11:04;;;;;;;1999.90;492.43;;;12.60;99.90;;;;;;5090047;28;20212;-52
2022/11/15 10:13:56;;;;;;;1970.33;403.43;;;12.60;99.90;;;;;;5080690;28;20232;-52
2022/11/15 10:17:00;;;;;;;1726.10;392.00;;;12.70;99.90;;;;;;5067409;28;20284;-52
2022/11/15 10:19:35;;;;;;;1999.90;618.43;;;12.80;99.90;;;;;;5050202;28;20291;-52
2022/11/15 10:22:19;;;;;;;1999.90;571.13;;;12.90;99.90;;;;;;5079515;28;20303;-52
2022/11/15 10:24:48;;;;;;;1999.90;506.37;;;12.90;99.90;;;;;;5065473;28;20236;-52
2022/11/15 10:27:18;;;;;;;1970.50;403.97;;;13.00;99.90;;;;;;5089964;28;20224;-51
2022/11/15 10:29:49;;;;;;;1999.90;603.57;;;13.10;99.90;;;;;;5065283;28;20291;-52
2022/11/15 10:32:21;;;;;;;1999.90;646.43;;;13.30;99.90;;;;;;5089407;28;20880;-51
2022/11/15 10:34:50;;;;;;;1999.90;640.00;;;13.30;99.90;;;;;;5063203;28;20301;-52
2022/11/15 10:37:29;;;;;;;1999.90;576.40;;;13.30;99.90;;;;;;5090236;28;21092;-51
2022/11/15 10:40:08;;;;;;;1999.90;891.00;;;13.40;99.90;;;;;;5055254;28;20228;-52
2022/11/15 10:42:36;;;;;;;1999.90;582.53;;;13.30;99.90;;;;;;5073269;28;20228;-52
2022/11/15 10:45:25;;;;;;;1999.90;780.73;;;13.30;99.90;;;;;;5089718;28;20729;-52
2022/11/15 10:47:54;;;;;;;1999.90;759.93;;;13.20;99.90;;;;;;5089931;28;20220;-52
2022/11/15 10:50:29;;;;;;;1999.90;536.90;;;13.20;99.90;;;;;;5075723;28;20201;-51
2022/11/15 10:52:58;;;;;;;1999.90;497.63;;;13.00;99.90;;;;;;5081768;28;20306;-52
2022/11/15 10:55:29;;;;;;;1999.90;563.93;;;13.00;99.90;;;;;;5089907;28;20288;-53
2022/11/15 10:58:03;;;;;;;1962.63;417.63;;;12.90;99.90;;;;;;5080062;28;20250;-53
2022/11/15 11:00:35;;;;;;;1999.90;666.33;;;12.90;99.90;;;;;;5090095;28;20244;-52
2022/11/15 11:03:07;;;;;;;1999.90;580.80;;;12.80;99.90;;;;;;5063850;28;20313;-52
2022/11/15 11:05:37;;;;;;;1999.90;560.93;;;12.80;99.90;;;;;;5088042;28;20242;-53
2022/11/15 11:08:24;;;;;;;1999.90;504.90;;;12.80;99.90;;;;;;5061810;28;20232;-52
2022/11/15 11:10:56;;;;;;;1645.67;405.60;;;13.00;99.90;;;;;;5086749;28;20224;-52
2022/11/15 11:13:33;;;;;;;1922.57;461.40;;;13.20;99.90;;;;;;5084573;28;20215;-52
2022/11/15 11:16:18;;;;;;;1999.90;657.97;;;13.30;99.90;;;;;;5070616;28;20206;-52
2022/11/15 11:18:56;;;;;;;1877.40;454.77;;;13.30;99.90;;;;;;5063841;28;20291;-52
2022/11/15 11:21:35;;;;;;;1999.90;578.00;;;13.20;99.90;;;;;;5083973;28;20886;-53
2022/11/15 11:24:14;;;;;;;1999.90;508.20;;;13.20;99.90;;;;;;5073761;28;20238;-52
2022/11/15 11:26:49;;;;;;;1918.50;445.10;;;13.10;99.90;;;;;;5089641;28;20295;-52
2022/11/15 11:29:38;;;;;;;1999.90;536.13;;;13.30;99.90;;;;;;5075408;28;20196;-52
2022/11/15 11:32:23;;;;;;;1999.90;549.37;;;13.40;99.90;;;;;;5088248;28;20295;-52
2022/11/15 11:35:03;;;;;;;1999.90;559.43;;;13.40;99.90;;;;;;5063200;28;20287;-52
2022/11/15 11:37:37;;;;;;;1999.90;695.20;;;13.50;99.90;;;;;;5088693;28;20287;-53
2022/11/15 11:40:20;;;;;;;1999.90;531.30;;;13.50;99.90;;;;;;5089517;28;20208;-52
2022/11/15 11:42:58;;;;;;;1999.90;610.43;;;13.60;99.90;;;;;;5088715;28;20339;-51
2022/11/15 11:45:44;;;;;;;1999.90;710.90;;;13.50;99.90;;;;;;5088704;28;20212;-52
2022/11/15 11:48:15;;;;;;;1999.90;561.93;;;13.50;99.90;;;;;;5088646;28;20592;-51
2022/11/15 11:50:46;;;;;;;1999.90;797.40;;;13.50;99.90;;;;;;5087895;28;20291;-52
2022/11/15 11:53:24;;;;;;;1878.43;397.10;;;13.50;99.90;;;;;;5088433;28;20247;-51
2022/11/15 11:55:55;;;;;;;1999.90;530.97;;;13.50;99.90;;;;;;5089560;28;20287;-52
2022/11/15 11:58:31;;;;;;;1999.90;753.23;;;13.50;99.90;;;;;;5067282;28;20291;-53
2022/11/15 12:01:11;;;;;;;1999.90;520.63;;;13.60;99.90;;;;;;5085712;28;20213;-52
2022/11/15 12:03:44;;;;;;;1999.90;526.10;;;13.60;99.90;;;;;;5059978;28;20326;-52
2022/11/15 12:06:24;;;;;;;1999.90;674.17;;;13.70;99.90;;;;;;5087113;28;20723;-52
2022/11/15 12:08:59;;;;;;;1999.90;837.83;;;13.60;99.90;;;;;;5087588;28;20285;-52
2022/11/15 12:11:31;;;;;;;1999.90;596.03;;;13.70;99.90;;;;;;5087210;28;20763;-52
2022/11/15 12:14:02;;;;;;;1999.90;637.97;;;13.70;99.90;;;;;;5059596;28;20312;-53
2022/11/15 12:16:32;;;;;;;1999.90;666.57;;;13.70;99.90;;;;;;5070069;28;20288;-52
2022/11/15 12:19:02;;;;;;;1999.90;674.33;;;13.70;99.90;;;;;;5085051;28;20204;-52
2022/11/15 12:21:40;;;;;;;1999.90;713.30;;;13.80;99.90;;;;;;5081419;28;20924;-52
2022/11/15 12:24:14;;;;;;;1966.60;486.27;;;13.80;99.90;;;;;;5082562;28;20327;-52
2022/11/15 12:26:49;;;;;;;1999.90;580.00;;;13.90;99.90;;;;;;5089005;28;20235;-52
2022/11/15 12:29:22;;;;;;;1949.43;507.53;;;13.90;99.90;;;;;;5075038;28;20243;-52
2022/11/15 12:31:55;;;;;;;1999.90;587.47;;;13.90;99.90;;;;;;5075564;28;20299;-52
2022/11/15 12:34:45;;;;;;;1999.90;754.03;;;13.90;99.90;;;;;;5087920;28;20254;-50
2022/11/15 12:37:50;;;;;;;1999.90;576.27;;;13.90;99.90;;;;;;5088469;28;20646;-52
2022/11/15 12:40:25;;;;;;;1999.90;501.63;;;13.90;99.90;;;;;;5068949;28;20246;-52
2022/11/15 12:43:05;;;;;;;1999.90;563.50;;;13.90;99.90;;;;;;5087732;28;20302;-52